createdAt,value
2022-10-15T00:01:31.029Z,90.25
2022-10-15T00:03:58.896Z,89.62
2022-10-15T00:06:26.660Z,90.27
2022-10-15T00:08:54.306Z,90.08
2022-10-15T00:11:23.828Z,89.86
2022-10-15T00:13:54.281Z,90.87
2022-10-15T00:16:26.336Z,90.38
2022-10-15T00:18:57.123Z,91.48
2022-10-15T00:21:24.994Z,90.61
2022-10-15T00:23:55.422Z,91.86
2022-10-15T00:26:24.937Z,92.76
2022-10-15T00:28:54.714Z,92.32
2022-10-15T00:31:26.206Z,92.38
2022-10-15T00:33:56.934Z,92.34
2022-10-15T00:36:29.420Z,91.31
2022-10-15T00:38:59.326Z,91.99
2022-10-15T00:41:30.561Z,92.35
2022-10-15T00:44:02.033Z,91.33
2022-10-15T00:46:34.442Z,91.63
2022-10-15T00:49:12.685Z,92.14
2022-10-15T00:51:46.136Z,92.44
2022-10-15T00:54:15.856Z,93.88
2022-10-15T00:56:45.894Z,94.63
2022-10-15T00:59:15.332Z,93.51
2022-10-15T01:01:43.426Z,93.72
2022-10-15T01:04:12.831Z,93.86
2022-10-15T01:06:41.143Z,92.92
2022-10-15T01:09:10.368Z,93.87
2022-10-15T01:11:43.453Z,94.77
2022-10-15T01:14:30.825Z,94.21
2022-10-15T01:17:06.506Z,95.02
2022-10-15T01:19:58.757Z,95.09
2022-10-15T01:22:45.846Z,95.64
2022-10-15T01:25:30.181Z,95.61
2022-10-15T01:28:07.316Z,96.21
2022-10-15T01:30:41.014Z,94.77
2022-10-15T01:33:36.504Z,95.42
2022-10-15T01:36:13.786Z,96.34
2022-10-15T01:38:56.474Z,96.52
2022-10-15T01:41:32.107Z,96.38
2022-10-15T01:44:03.520Z,96.59
2022-10-15T01:47:13.007Z,95.65
2022-10-15T01:49:44.984Z,95.66
2022-10-15T01:52:17.796Z,96.22
2022-10-15T01:54:48.394Z,96.49
2022-10-15T01:57:19.187Z,95.80
2022-10-15T01:59:49.151Z,98.73
2022-10-15T02:02:20.704Z,97.28
2022-10-15T02:04:48.740Z,95.89
2022-10-15T02:07:31.888Z,96.34
2022-10-15T02:10:07.668Z,95.85
2022-10-15T02:12:47.310Z,96.05
2022-10-15T02:15:20.336Z,95.27
2022-10-15T02:17:59.820Z,95.66
2022-10-15T02:20:36.658Z,96.15
2022-10-15T02:23:11.116Z,96.94
2022-10-15T02:25:41.241Z,96.49
2022-10-15T02:28:12.745Z,98.23
2022-10-15T02:30:49.181Z,95.75
2022-10-15T02:33:20.638Z,95.01
2022-10-15T02:35:51.399Z,93.77
2022-10-15T02:38:22.260Z,94.15
2022-10-15T02:40:51.819Z,93.59
2022-10-15T02:43:22.106Z,92.88
2022-10-15T02:45:52.023Z,92.50
2022-10-15T02:48:22.916Z,92.48
2022-10-15T02:50:50.941Z,92.08
2022-10-15T02:53:18.610Z,93.61
2022-10-15T02:55:47.017Z,94.09
2022-10-15T02:58:14.865Z,95.09
2022-10-15T03:00:44.758Z,95.04
2022-10-15T03:03:13.827Z,95.09
2022-10-15T03:05:44.174Z,94.38
2022-10-15T03:08:11.891Z,94.35
2022-10-15T03:10:39.967Z,93.44
2022-10-15T03:13:07.931Z,93.04
2022-10-15T03:15:43.245Z,93.04
2022-10-15T03:18:11.282Z,92.88
2022-10-15T03:20:39.620Z,93.20
2022-10-15T03:23:08.679Z,94.69
2022-10-15T03:25:36.436Z,94.40
2022-10-15T03:28:05.953Z,92.72
2022-10-15T03:30:40.566Z,96.09
2022-10-15T03:33:08.966Z,93.91
2022-10-15T03:35:37.516Z,93.37
2022-10-15T03:38:08.183Z,94.02
2022-10-15T03:40:36.837Z,92.41
2022-10-15T03:43:25.195Z,92.71
2022-10-15T03:45:54.233Z,92.28
2022-10-15T03:48:24.657Z,93.21
2022-10-15T03:50:52.734Z,94.32
2022-10-15T03:53:22.271Z,95.05
2022-10-15T03:55:50.755Z,94.71
2022-10-15T03:58:18.482Z,95.39
2022-10-15T04:00:54.256Z,95.23
2022-10-15T04:03:22.262Z,94.71
2022-10-15T04:05:54.037Z,94.63
2022-10-15T04:08:26.173Z,93.97
2022-10-15T04:10:54.208Z,93.04
2022-10-15T04:13:22.083Z,92.48
2022-10-15T04:15:49.747Z,92.03
2022-10-15T04:18:17.759Z,91.81
2022-10-15T04:20:49.588Z,91.45
2022-10-15T04:23:22.257Z,91.29
2022-10-15T04:26:21.413Z,91.05
2022-10-15T04:28:49.991Z,90.96
2022-10-15T04:31:19.637Z,92.17
2022-10-15T04:33:49.367Z,91.86
2022-10-15T04:38:58.717Z,91.14
2022-10-15T04:41:34.561Z,90.74
2022-10-15T04:44:09.275Z,90.40
2022-10-15T04:46:38.787Z,90.05
2022-10-15T04:49:29.367Z,89.45
2022-10-15T04:51:57.626Z,90.76
2022-10-15T04:54:30.699Z,90.25
2022-10-15T04:57:06.616Z,89.92
2022-10-15T04:59:34.706Z,89.92
2022-10-15T05:02:21.316Z,89.16
2022-10-15T05:04:55.088Z,89.91
2022-10-15T05:07:23.623Z,89.63
2022-10-15T05:09:55.131Z,89.78
2022-10-15T05:12:24.238Z,89.57
2022-10-15T05:14:53.354Z,89.46
2022-10-15T05:17:27.421Z,89.05
2022-10-15T05:19:56.090Z,89.04
2022-10-15T05:22:27.619Z,88.74
2022-10-15T05:24:59.424Z,89.24
2022-10-15T05:27:36.276Z,89.20
2022-10-15T05:30:07.009Z,88.84
2022-10-15T05:32:44.222Z,88.90
2022-10-15T05:35:16.879Z,88.69
2022-10-15T05:38:00.690Z,88.78
2022-10-15T05:40:28.770Z,89.00
2022-10-15T05:43:06.697Z,88.80
2022-10-15T05:45:34.527Z,88.75
2022-10-15T05:48:07.785Z,88.71
2022-10-15T05:50:36.520Z,88.70
2022-10-15T05:53:08.229Z,88.89
2022-10-15T05:55:47.225Z,89.91
2022-10-15T05:58:16.367Z,90.37
2022-10-15T06:00:46.149Z,90.50
2022-10-15T06:03:15.256Z,90.57
2022-10-15T06:05:42.935Z,89.33
2022-10-15T06:08:10.638Z,90.33
2022-10-15T06:10:38.760Z,89.58
2022-10-15T06:13:10.165Z,89.35
2022-10-15T06:15:42.002Z,89.73
2022-10-15T06:18:11.113Z,89.58
2022-10-15T06:20:41.174Z,89.20
2022-10-15T06:23:09.041Z,89.21
2022-10-15T06:25:36.922Z,89.82
2022-10-15T06:28:06.034Z,90.69
2022-10-15T06:30:43.908Z,90.48
2022-10-15T06:35:44.409Z,89.68
2022-10-15T06:38:14.055Z,88.93
2022-10-15T06:40:41.764Z,89.78
2022-10-15T06:43:11.670Z,89.47
2022-10-15T06:45:42.402Z,89.06
2022-10-15T06:48:19.479Z,89.27
2022-10-15T06:50:47.243Z,89.57
2022-10-15T06:53:16.638Z,90.10
2022-10-15T06:55:44.475Z,91.04
2022-10-15T06:58:12.183Z,90.93
2022-10-15T07:00:39.888Z,91.70
2022-10-15T07:03:08.706Z,89.80
2022-10-15T07:05:37.857Z,89.20
2022-10-15T07:08:06.164Z,88.84
2022-10-15T07:10:34.023Z,88.47
2022-10-15T07:13:02.954Z,88.45
2022-10-15T07:15:30.742Z,88.40
2022-10-15T07:18:01.439Z,88.47
2022-10-15T07:20:30.239Z,88.53
2022-10-15T07:23:02.222Z,87.69
2022-10-15T07:25:35.022Z,88.26
2022-10-15T07:28:03.002Z,88.23
2022-10-15T07:30:30.722Z,88.10
2022-10-15T07:32:59.260Z,88.17
2022-10-15T07:35:27.218Z,86.97
2022-10-15T07:37:55.075Z,87.16
2022-10-15T07:40:24.219Z,86.94
2022-10-15T07:42:55.426Z,86.60
2022-10-15T07:45:24.621Z,86.58
2022-10-15T07:47:52.822Z,86.65
2022-10-15T07:50:20.850Z,86.29
2022-10-15T07:52:48.961Z,86.52
2022-10-15T07:55:16.974Z,86.04
2022-10-15T07:57:46.076Z,85.94
2022-10-15T08:00:14.232Z,85.66
2022-10-15T08:02:44.003Z,87.15
2022-10-15T08:05:11.762Z,86.85
2022-10-15T08:07:41.841Z,88.13
2022-10-15T08:10:13.371Z,88.30
2022-10-15T08:12:41.077Z,88.35
2022-10-15T08:15:11.317Z,86.91
2022-10-15T08:17:41.351Z,87.38
2022-10-15T08:20:11.316Z,86.13
2022-10-15T08:22:39.290Z,87.16
2022-10-15T08:25:07.627Z,86.61
2022-10-15T08:27:35.331Z,86.81
2022-10-15T08:30:05.665Z,86.84
2022-10-15T08:32:37.157Z,86.50
2022-10-15T08:35:05.139Z,87.18
2022-10-15T08:37:33.417Z,86.48
2022-10-15T08:40:01.157Z,85.85
2022-10-15T08:42:36.826Z,85.62
2022-10-15T08:45:08.868Z,85.17
2022-10-15T08:47:46.937Z,85.19
2022-10-15T08:50:25.731Z,85.13
2022-10-15T08:52:59.426Z,85.79
2022-10-15T08:55:35.536Z,85.43
2022-10-15T08:58:13.871Z,85.86
2022-10-15T09:00:44.939Z,86.01
2022-10-15T09:03:33.026Z,85.95
2022-10-15T09:06:10.734Z,85.99
2022-10-15T09:08:48.950Z,86.22
2022-10-15T09:11:23.589Z,86.05
2022-10-15T09:13:51.854Z,86.21
2022-10-15T09:16:28.810Z,86.17
2022-10-15T09:19:01.593Z,87.95
2022-10-15T09:21:30.476Z,86.90
2022-10-15T09:24:03.411Z,85.67
2022-10-15T09:26:36.906Z,85.28
2022-10-15T09:29:16.738Z,85.51
2022-10-15T09:31:50.090Z,85.42
2022-10-15T09:34:27.920Z,84.73
2022-10-15T09:36:59.446Z,85.84
2022-10-15T09:39:41.312Z,86.33
2022-10-15T09:42:20.850Z,86.37
2022-10-15T09:44:52.817Z,87.45
2022-10-15T09:47:25.720Z,87.90
2022-10-15T09:50:02.763Z,87.58
2022-10-15T09:52:46.557Z,87.77
2022-10-15T09:55:30.753Z,87.02
2022-10-15T09:58:02.855Z,85.34
2022-10-15T10:00:54.536Z,88.55
2022-10-15T10:03:26.352Z,86.54
2022-10-15T10:06:03.717Z,87.02
2022-10-15T10:08:40.544Z,85.44
2022-10-15T10:11:12.866Z,86.18
2022-10-15T10:13:50.814Z,85.89
2022-10-15T10:16:20.286Z,84.83
2022-10-15T10:19:04.770Z,86.83
2022-10-15T10:21:35.650Z,86.00
2022-10-15T10:24:20.187Z,84.57
2022-10-15T10:26:49.065Z,85.16
2022-10-15T10:29:36.560Z,86.59
2022-10-15T10:32:12.197Z,86.28
2022-10-15T10:34:40.173Z,83.04
2022-10-15T10:37:11.412Z,84.01
2022-10-15T10:39:39.282Z,82.25
2022-10-15T10:42:25.713Z,82.05
2022-10-15T10:44:54.568Z,81.66
2022-10-15T10:47:24.342Z,81.18
2022-10-15T10:49:57.844Z,79.53
2022-10-15T10:52:29.836Z,80.44
2022-10-15T10:55:02.863Z,80.60
2022-10-15T10:57:42.159Z,79.41
2022-10-15T11:00:16.296Z,81.25
2022-10-15T11:02:48.622Z,79.92
2022-10-15T11:05:22.756Z,79.22
2022-10-15T11:08:00.006Z,78.69
2022-10-15T11:10:35.154Z,77.21
2022-10-15T11:13:17.908Z,75.33
2022-10-15T11:15:55.263Z,73.94
2022-10-15T11:18:35.679Z,75.85
2022-10-15T11:21:11.774Z,75.09
2022-10-15T11:23:57.342Z,73.67
2022-10-15T11:26:46.029Z,75.28
2022-10-15T11:29:30.979Z,74.40
2022-10-15T11:32:15.217Z,73.09
2022-10-15T11:35:01.223Z,72.89
2022-10-15T11:37:42.895Z,71.98
2022-10-15T11:40:21.751Z,71.91
2022-10-15T11:42:57.213Z,70.79
2022-10-15T11:45:48.540Z,69.79
2022-10-15T11:48:23.319Z,69.83
2022-10-15T11:50:57.057Z,70.14
2022-10-15T11:53:57.493Z,68.65
2022-10-15T11:56:34.951Z,68.87
2022-10-15T11:59:18.557Z,68.85
2022-10-15T12:01:50.820Z,68.81
2022-10-15T12:04:30.387Z,66.84
2022-10-15T12:07:05.948Z,66.79
2022-10-15T12:09:38.253Z,68.03
2022-10-15T12:12:13.091Z,67.89
2022-10-15T12:14:49.931Z,68.67
2022-10-15T12:17:24.086Z,68.57
2022-10-15T12:19:56.322Z,69.52
2022-10-15T12:22:35.922Z,68.71
2022-10-15T12:25:03.975Z,68.17
2022-10-15T12:27:36.815Z,68.90
2022-10-15T12:30:22.836Z,70.25
2022-10-15T12:32:51.241Z,70.21
2022-10-15T12:35:37.823Z,70.25
2022-10-15T12:38:26.233Z,71.64
2022-10-15T12:41:03.849Z,70.90
2022-10-15T12:43:36.768Z,71.94
2022-10-15T12:46:06.762Z,72.68
2022-10-15T12:48:39.851Z,72.72
2022-10-15T12:51:41.306Z,73.88
2022-10-15T12:54:39.156Z,75.92
2022-10-15T12:57:44.582Z,74.43
2022-10-15T13:00:40.775Z,75.71
2022-10-15T13:03:35.682Z,74.10
2022-10-15T13:06:24.811Z,74.29
2022-10-15T13:08:55.106Z,74.44
2022-10-15T13:11:26.384Z,75.08
2022-10-15T13:14:03.285Z,74.14
2022-10-15T13:16:32.580Z,74.30
2022-10-15T13:19:00.796Z,73.53
2022-10-15T13:21:50.630Z,74.58
2022-10-15T13:24:20.497Z,74.92
2022-10-15T13:26:48.275Z,75.28
2022-10-15T13:29:19.365Z,74.75
2022-10-15T13:31:49.073Z,76.09
2022-10-15T13:34:27.186Z,76.54
2022-10-15T13:36:57.604Z,77.84
2022-10-15T13:39:31.107Z,78.65
2022-10-15T13:42:09.896Z,79.69
2022-10-15T13:44:37.687Z,77.88
2022-10-15T13:47:25.700Z,78.29
2022-10-15T13:50:11.177Z,78.64
2022-10-15T13:52:41.466Z,77.77
2022-10-15T13:55:18.470Z,77.27
2022-10-15T13:57:47.445Z,78.11
2022-10-15T14:00:24.557Z,77.98
2022-10-15T14:03:10.633Z,79.25
2022-10-15T14:05:38.376Z,78.90
2022-10-15T14:08:16.536Z,78.38
2022-10-15T14:10:44.513Z,79.50
2022-10-15T14:13:12.858Z,77.56
2022-10-15T14:15:47.476Z,76.42
2022-10-15T14:18:19.668Z,76.61
2022-10-15T14:20:48.795Z,78.28
2022-10-15T14:23:18.629Z,79.22
2022-10-15T14:25:46.472Z,80.75
2022-10-15T14:28:22.104Z,79.69
2022-10-15T14:30:49.952Z,81.61
2022-10-15T14:33:42.421Z,80.10
2022-10-15T14:36:24.676Z,80.31
2022-10-15T14:38:53.649Z,79.04
2022-10-15T14:41:30.366Z,79.84
2022-10-15T14:44:03.816Z,78.78
2022-10-15T14:46:38.186Z,78.32
2022-10-15T14:49:27.550Z,78.97
2022-10-15T14:52:03.300Z,79.24
2022-10-15T14:54:40.712Z,78.68
2022-10-15T14:57:18.755Z,77.45
2022-10-15T14:59:46.669Z,78.91
2022-10-15T15:02:17.681Z,78.06
2022-10-15T15:05:08.798Z,77.62
2022-10-15T15:07:36.528Z,77.26
2022-10-15T15:10:05.390Z,75.92
2022-10-15T15:12:34.315Z,76.49
2022-10-15T15:15:02.524Z,76.64
2022-10-15T15:17:31.393Z,77.45
2022-10-15T15:22:38.628Z,77.64
2022-10-15T15:25:15.124Z,77.26
2022-10-15T15:27:45.548Z,77.01
2022-10-15T15:30:19.002Z,77.83
2022-10-15T15:32:47.981Z,78.84
2022-10-15T15:35:22.151Z,78.83
2022-10-15T15:37:51.970Z,79.14
2022-10-15T15:40:22.615Z,78.87
2022-10-15T15:42:51.555Z,78.99
2022-10-15T15:45:22.257Z,77.34
2022-10-15T15:47:50.336Z,77.32
2022-10-15T15:50:21.712Z,76.02
2022-10-15T15:52:49.434Z,77.73
2022-10-15T15:55:18.080Z,77.56
2022-10-15T15:57:48.293Z,76.87
2022-10-15T16:00:16.835Z,77.50
2022-10-15T16:02:45.092Z,76.36
2022-10-15T16:05:15.871Z,77.21
2022-10-15T16:07:45.614Z,78.52
2022-10-15T16:10:15.504Z,78.54
2022-10-15T16:12:43.982Z,76.83
2022-10-15T16:15:14.666Z,77.41
2022-10-15T16:17:43.549Z,78.64
2022-10-15T16:20:12.827Z,78.08
2022-10-15T16:22:40.569Z,78.15
2022-10-15T16:25:10.520Z,78.05
2022-10-15T16:27:38.255Z,78.18
2022-10-15T16:30:07.100Z,78.62
2022-10-15T16:32:34.845Z,78.97
2022-10-15T16:35:02.897Z,77.55
2022-10-15T16:37:30.606Z,77.30
2022-10-15T16:39:58.551Z,78.08
2022-10-15T16:42:27.839Z,78.68
2022-10-15T16:44:55.561Z,78.40
2022-10-15T16:47:23.517Z,78.56
2022-10-15T16:49:51.459Z,79.25
2022-10-15T16:52:19.292Z,79.28
2022-10-15T16:54:47.454Z,78.15
2022-10-15T16:57:15.347Z,78.94
2022-10-15T16:59:46.878Z,79.22
2022-10-15T17:02:14.672Z,78.88
2022-10-15T17:04:42.551Z,79.16
2022-10-15T17:07:10.215Z,78.73
2022-10-15T17:09:37.977Z,79.35
2022-10-15T17:12:06.237Z,79.24
2022-10-15T17:14:34.119Z,80.00
2022-10-15T17:17:03.336Z,80.48
2022-10-15T17:19:34.310Z,80.79
2022-10-15T17:22:02.189Z,80.85
2022-10-15T17:24:29.980Z,81.64
2022-10-15T17:26:58.830Z,81.58
2022-10-15T17:29:29.215Z,82.61
2022-10-15T17:32:03.384Z,82.40
2022-10-15T17:34:31.108Z,84.61
2022-10-15T17:36:58.842Z,84.34
2022-10-15T17:39:26.688Z,85.15
2022-10-15T17:41:54.870Z,82.43
2022-10-15T17:44:22.695Z,84.14
2022-10-15T17:46:52.451Z,83.41
2022-10-15T17:49:24.842Z,82.70
2022-10-15T17:51:52.754Z,84.07
2022-10-15T17:54:20.609Z,84.13
2022-10-15T17:56:49.443Z,83.89
2022-10-15T17:59:17.221Z,82.96
2022-10-15T18:01:57.915Z,83.46
2022-10-15T18:04:29.079Z,82.46
2022-10-15T18:06:56.965Z,81.22
2022-10-15T18:09:25.153Z,81.88
2022-10-15T18:11:56.060Z,81.83
2022-10-15T18:14:28.382Z,80.78
2022-10-15T18:16:56.114Z,80.59
2022-10-15T18:19:26.708Z,80.36
2022-10-15T18:21:58.821Z,80.48
2022-10-15T18:24:28.703Z,79.76
2022-10-15T18:26:56.452Z,79.11
2022-10-15T18:29:25.491Z,79.22
2022-10-15T18:31:57.597Z,78.06
2022-10-15T18:34:33.101Z,78.47
2022-10-15T18:37:05.941Z,79.20
2022-10-15T18:39:34.931Z,78.76
2022-10-15T18:42:02.670Z,77.41
2022-10-15T18:44:30.430Z,77.88
2022-10-15T18:46:58.197Z,77.73
2022-10-15T18:49:25.935Z,78.23
2022-10-15T18:51:55.233Z,77.47
2022-10-15T18:54:24.558Z,78.54
2022-10-15T18:56:53.475Z,77.47
2022-10-15T18:59:21.751Z,76.78
2022-10-15T19:01:50.118Z,77.90
2022-10-15T19:04:19.755Z,78.05
2022-10-15T19:06:49.303Z,78.62
2022-10-15T19:09:22.387Z,78.92
2022-10-15T19:11:55.568Z,78.67
2022-10-15T19:14:24.021Z,78.82
2022-10-15T19:16:54.152Z,79.01
2022-10-15T19:19:23.708Z,79.25
2022-10-15T19:21:57.891Z,79.30
2022-10-15T19:24:25.620Z,78.81
2022-10-15T19:26:55.039Z,78.69
2022-10-15T19:29:22.884Z,77.66
2022-10-15T19:31:53.664Z,77.45
2022-10-15T19:34:22.677Z,78.99
2022-10-15T19:36:51.121Z,78.67
2022-10-15T19:39:21.897Z,78.47
2022-10-15T19:41:50.945Z,77.97
2022-10-15T19:44:24.935Z,78.88
2022-10-15T19:46:53.130Z,77.96
2022-10-15T19:49:21.029Z,78.75
2022-10-15T19:51:49.204Z,78.46
2022-10-15T19:54:17.291Z,77.64
2022-10-15T19:56:46.118Z,77.73
2022-10-15T19:59:13.974Z,77.93
2022-10-15T20:01:43.114Z,81.34
2022-10-15T20:04:10.956Z,78.74
2022-10-15T20:06:39.422Z,78.20
2022-10-15T20:09:08.618Z,77.70
2022-10-15T20:11:37.191Z,77.40
2022-10-15T20:14:08.282Z,80.16
2022-10-15T20:16:36.098Z,80.06
2022-10-15T20:19:06.306Z,79.11
2022-10-15T20:21:34.338Z,78.70
2022-10-15T20:24:04.439Z,79.46
2022-10-15T20:26:32.843Z,79.74
2022-10-15T20:29:00.969Z,79.14
2022-10-15T20:31:32.662Z,78.48
2022-10-15T20:34:05.191Z,78.27
2022-10-15T20:36:33.013Z,78.66
2022-10-15T20:39:01.797Z,78.64
2022-10-15T20:41:31.965Z,79.28
2022-10-15T20:44:00.095Z,79.16
2022-10-15T20:46:32.669Z,79.32
2022-10-15T20:49:07.796Z,79.59
2022-10-15T20:51:40.470Z,79.45
2022-10-15T20:54:08.714Z,79.55
2022-10-15T20:56:36.659Z,79.98
2022-10-15T20:59:05.195Z,79.72
2022-10-15T21:01:33.839Z,81.10
2022-10-15T21:04:02.075Z,80.57
2022-10-15T21:06:30.461Z,80.84
2022-10-15T21:08:59.649Z,80.79
2022-10-15T21:11:27.625Z,79.40
2022-10-15T21:13:57.909Z,79.85
2022-10-15T21:16:28.584Z,79.07
2022-10-15T21:18:58.574Z,80.08
2022-10-15T21:21:26.358Z,80.61
2022-10-15T21:23:54.074Z,81.16
2022-10-15T21:26:23.230Z,80.17
2022-10-15T21:28:55.716Z,80.36
2022-10-15T21:31:23.587Z,80.36
2022-10-15T21:33:51.781Z,80.70
2022-10-15T21:36:21.978Z,81.15
2022-10-15T21:38:53.102Z,80.60
2022-10-15T21:41:21.098Z,80.15
2022-10-15T21:46:22.832Z,80.34
2022-10-15T21:48:51.134Z,80.15
2022-10-15T21:51:24.704Z,79.10
2022-10-15T21:53:52.802Z,79.61
2022-10-15T21:56:20.733Z,80.92
2022-10-15T21:58:49.781Z,80.93
2022-10-15T22:01:20.778Z,80.28
2022-10-15T22:03:49.732Z,79.72
2022-10-15T22:06:18.301Z,79.50
2022-10-15T22:08:46.694Z,79.36
2022-10-15T22:11:16.792Z,80.13
2022-10-15T22:13:46.703Z,79.71
2022-10-15T22:16:18.287Z,81.52
2022-10-15T22:18:46.414Z,83.23
2022-10-15T22:21:16.183Z,82.96
2022-10-15T22:23:45.071Z,81.41
2022-10-15T22:26:13.251Z,81.36
2022-10-15T22:28:41.911Z,82.15
2022-10-15T22:31:17.509Z,81.20
2022-10-15T22:33:46.692Z,81.07
2022-10-15T22:36:16.408Z,80.82
2022-10-15T22:38:46.503Z,82.44
2022-10-15T22:41:14.798Z,81.44
2022-10-15T22:43:43.416Z,81.54
2022-10-15T22:46:11.586Z,81.27
2022-10-15T22:48:43.100Z,80.81
2022-10-15T22:51:13.588Z,80.20
2022-10-15T22:53:41.658Z,80.13
2022-10-15T22:56:14.198Z,80.25
2022-10-15T22:58:42.523Z,79.79
2022-10-15T23:01:11.834Z,80.29
2022-10-15T23:03:41.652Z,78.92
2022-10-15T23:06:09.763Z,79.21
2022-10-15T23:08:37.896Z,79.00
2022-10-15T23:11:10.814Z,78.68
2022-10-15T23:13:39.366Z,78.40
2022-10-15T23:16:09.680Z,77.75
2022-10-15T23:18:37.738Z,77.73
2022-10-15T23:21:11.593Z,78.23
2022-10-15T23:23:39.322Z,77.25
2022-10-15T23:26:07.509Z,77.47
2022-10-15T23:28:35.350Z,79.19
2022-10-15T23:31:03.144Z,78.47
2022-10-15T23:33:30.889Z,79.27
2022-10-15T23:36:03.983Z,80.65
2022-10-15T23:38:33.207Z,80.29
2022-10-15T23:41:02.581Z,79.64
2022-10-15T23:43:30.951Z,78.59
2022-10-15T23:45:59.002Z,79.22
2022-10-15T23:48:27.409Z,78.18
2022-10-15T23:51:00.697Z,78.02
2022-10-15T23:53:33.927Z,77.65
2022-10-15T23:56:02.793Z,77.45
2022-10-15T23:58:31.993Z,78.76
